createdAt,value
2019-03-23T00:00:43.572Z,7.52
2019-03-23T00:03:13.066Z,7.46
2019-03-23T00:05:42.734Z,7.36
2019-03-23T00:08:12.188Z,7.34
2019-03-23T00:10:41.774Z,7.30
2019-03-23T00:13:11.273Z,7.20
2019-03-23T00:15:40.755Z,7.18
2019-03-23T00:18:10.235Z,7.22
2019-03-23T00:20:39.741Z,7.33
2019-03-23T00:23:09.284Z,7.16
2019-03-23T00:25:38.797Z,7.12
2019-03-23T00:28:08.282Z,7.14
2019-03-23T00:30:37.802Z,7.18
2019-03-23T00:33:07.315Z,7.14
2019-03-23T00:35:36.783Z,7.15
2019-03-23T00:38:06.275Z,7.13
2019-03-23T00:40:35.766Z,7.09
2019-03-23T00:43:05.342Z,7.06
2019-03-23T00:45:34.827Z,7.09
2019-03-23T00:48:04.503Z,7.02
2019-03-23T00:50:34.097Z,6.98
2019-03-23T00:53:03.693Z,6.97
2019-03-23T00:55:33.220Z,6.94
2019-03-23T00:58:02.695Z,6.90
2019-03-23T01:00:32.366Z,6.85
2019-03-23T01:03:01.951Z,6.80
2019-03-23T01:05:31.502Z,6.78
2019-03-23T01:08:01.156Z,6.72
2019-03-23T01:10:30.655Z,6.86
2019-03-23T01:13:00.168Z,6.94
2019-03-23T01:15:29.802Z,6.86
2019-03-23T01:17:59.301Z,6.71
2019-03-23T01:20:28.828Z,6.62
2019-03-23T01:22:58.504Z,6.57
2019-03-23T01:25:28.010Z,6.71
2019-03-23T01:27:58.952Z,6.68
2019-03-23T01:30:28.530Z,6.61
2019-03-23T01:32:58.112Z,6.59
2019-03-23T01:35:30.365Z,6.60
2019-03-23T01:37:59.851Z,6.57
2019-03-23T01:40:31.019Z,6.74
2019-03-23T01:43:02.980Z,6.69
2019-03-23T01:45:31.818Z,6.58
2019-03-23T01:48:01.366Z,6.67
2019-03-23T01:50:30.873Z,6.71
2019-03-23T01:53:00.377Z,6.81
2019-03-23T01:55:30.056Z,6.87
2019-03-23T01:58:01.466Z,6.92
2019-03-23T02:00:31.108Z,6.81
2019-03-23T02:03:00.603Z,6.95
2019-03-23T02:05:30.091Z,6.90
2019-03-23T02:07:59.622Z,6.90
2019-03-23T02:10:29.169Z,7.07
2019-03-23T02:12:58.700Z,7.56
2019-03-23T02:15:28.291Z,7.98
2019-03-23T02:17:57.844Z,8.16
2019-03-23T02:20:27.368Z,8.38
2019-03-23T02:22:56.865Z,8.40
2019-03-23T02:25:26.371Z,8.28
2019-03-23T02:27:55.871Z,8.28
2019-03-23T02:30:25.486Z,8.44
2019-03-23T02:32:55.038Z,8.24
2019-03-23T02:35:24.553Z,8.17
2019-03-23T02:37:54.140Z,8.16
2019-03-23T02:40:23.641Z,8.38
2019-03-23T02:42:53.151Z,8.36
2019-03-23T02:45:22.715Z,8.38
2019-03-23T02:47:52.191Z,8.23
2019-03-23T02:50:21.692Z,8.18
2019-03-23T02:52:51.208Z,8.09
2019-03-23T02:55:20.776Z,8.27
2019-03-23T02:57:50.282Z,8.22
2019-03-23T03:00:19.843Z,8.08
2019-03-23T03:02:49.351Z,8.13
2019-03-23T03:05:18.839Z,7.88
2019-03-23T03:07:48.325Z,7.87
2019-03-23T03:10:42.438Z,7.71
2019-03-23T03:13:12.086Z,7.75
2019-03-23T03:15:41.752Z,7.78
2019-03-23T03:18:11.348Z,7.93
2019-03-23T03:20:40.967Z,8.02
2019-03-23T03:23:10.450Z,7.97
2019-03-23T03:25:40.033Z,7.84
2019-03-23T03:28:09.516Z,7.68
2019-03-23T03:30:39.015Z,7.74
2019-03-23T03:33:08.653Z,7.71
2019-03-23T03:35:38.220Z,7.74
2019-03-23T03:38:07.748Z,7.71
2019-03-23T03:40:37.608Z,7.75
2019-03-23T03:43:07.108Z,7.73
2019-03-23T03:45:38.524Z,7.71
2019-03-23T03:48:08.098Z,7.72
2019-03-23T03:50:37.589Z,7.71
2019-03-23T03:53:07.138Z,7.65
2019-03-23T03:55:36.634Z,7.64
2019-03-23T03:58:06.120Z,7.74
2019-03-23T04:00:35.714Z,7.74
2019-03-23T04:03:05.267Z,7.78
2019-03-23T04:05:34.801Z,7.77
2019-03-23T04:08:11.262Z,7.72
2019-03-23T04:10:35.747Z,7.75
2019-03-23T04:13:05.236Z,7.79
2019-03-23T04:15:34.732Z,7.75
2019-03-23T04:18:04.346Z,7.80
2019-03-23T04:20:33.817Z,7.83
2019-03-23T04:23:03.321Z,7.85
2019-03-23T04:25:32.945Z,7.81
2019-03-23T04:28:02.540Z,7.85
2019-03-23T04:30:32.127Z,7.88
2019-03-23T04:33:01.620Z,7.92
2019-03-23T04:35:31.120Z,7.81
2019-03-23T04:38:00.603Z,7.77
2019-03-23T04:40:30.109Z,7.86
2019-03-23T04:43:00.821Z,7.78
2019-03-23T04:45:30.307Z,8.02
2019-03-23T04:47:59.792Z,7.97
2019-03-23T04:50:29.365Z,8.00
2019-03-23T04:52:58.862Z,8.09
2019-03-23T04:55:28.387Z,8.11
2019-03-23T04:57:57.892Z,8.09
2019-03-23T05:00:27.644Z,8.06
2019-03-23T05:02:57.360Z,8.04
2019-03-23T05:05:26.890Z,8.21
2019-03-23T05:07:56.406Z,8.27
2019-03-23T05:10:25.908Z,8.18
2019-03-23T05:12:55.391Z,8.14
2019-03-23T05:15:24.905Z,8.04
2019-03-23T05:17:54.532Z,8.08
2019-03-23T05:20:32.235Z,8.29
2019-03-23T05:23:01.763Z,8.29
2019-03-23T05:25:31.613Z,8.24
2019-03-23T05:28:01.254Z,8.14
2019-03-23T05:30:30.736Z,8.33
2019-03-23T05:33:00.250Z,8.38
2019-03-23T05:35:29.818Z,8.31
2019-03-23T05:37:59.315Z,8.34
2019-03-23T05:40:28.898Z,8.40
2019-03-23T05:42:58.976Z,8.41
2019-03-23T05:45:28.493Z,8.28
2019-03-23T05:47:57.970Z,8.51
2019-03-23T05:50:27.526Z,8.54
2019-03-23T05:52:57.040Z,8.45
2019-03-23T05:55:26.534Z,8.53
2019-03-23T05:57:56.034Z,8.57
2019-03-23T06:00:25.548Z,8.53
2019-03-23T06:02:55.121Z,8.64
2019-03-23T06:05:24.845Z,8.69
2019-03-23T06:07:54.500Z,8.69
2019-03-23T06:10:23.997Z,8.62
2019-03-23T06:12:53.479Z,8.62
2019-03-23T06:15:23.105Z,8.80
2019-03-23T06:17:52.695Z,8.79
2019-03-23T06:20:22.182Z,8.77
2019-03-23T06:22:51.717Z,8.96
2019-03-23T06:25:21.267Z,8.93
2019-03-23T06:27:50.783Z,8.87
2019-03-23T06:30:20.361Z,8.80
2019-03-23T06:32:49.915Z,8.70
2019-03-23T06:35:19.428Z,8.84
2019-03-23T06:37:48.939Z,8.84
2019-03-23T06:40:18.519Z,8.66
2019-03-23T06:42:59.383Z,8.72
2019-03-23T06:45:22.097Z,8.67
2019-03-23T06:47:51.612Z,8.75
2019-03-23T06:50:21.095Z,8.61
2019-03-23T06:52:50.612Z,8.64
2019-03-23T06:55:20.101Z,8.67
2019-03-23T06:57:49.652Z,8.78
2019-03-23T07:00:19.344Z,8.66
2019-03-23T07:02:48.852Z,8.67
2019-03-23T07:05:18.358Z,8.65
2019-03-23T07:07:47.907Z,8.87
2019-03-23T07:10:17.700Z,8.79
2019-03-23T07:12:47.225Z,8.79
2019-03-23T07:15:20.240Z,8.78
2019-03-23T07:17:48.239Z,8.82
2019-03-23T07:20:17.874Z,8.90
2019-03-23T07:22:47.423Z,8.79
2019-03-23T07:25:17.033Z,8.89
2019-03-23T07:27:46.533Z,8.90
2019-03-23T07:30:18.988Z,8.75
2019-03-23T07:32:48.610Z,9.04
2019-03-23T07:35:18.276Z,8.99
2019-03-23T07:37:47.780Z,8.95
2019-03-23T07:40:17.970Z,8.89
2019-03-23T07:42:47.541Z,8.93
2019-03-23T07:45:17.487Z,8.98
2019-03-23T07:47:47.209Z,8.85
2019-03-23T07:50:16.928Z,8.91
2019-03-23T07:52:46.610Z,8.98
2019-03-23T07:55:18.924Z,9.02
2019-03-23T07:57:48.528Z,9.10
2019-03-23T08:00:22.808Z,8.96
2019-03-23T08:02:52.329Z,9.01
2019-03-23T08:05:21.848Z,8.98
2019-03-23T08:07:51.499Z,9.08
2019-03-23T08:10:34.508Z,8.99
2019-03-23T08:13:04.086Z,9.22
2019-03-23T08:15:33.769Z,9.21
2019-03-23T08:18:03.333Z,9.23
2019-03-23T08:20:32.942Z,9.31
2019-03-23T08:23:02.427Z,9.45
2019-03-23T08:25:31.997Z,9.56
2019-03-23T08:28:01.486Z,9.61
2019-03-23T08:30:31.049Z,9.65
2019-03-23T08:33:00.565Z,9.78
2019-03-23T08:35:30.056Z,9.87
2019-03-23T08:38:00.522Z,9.70
2019-03-23T08:40:30.056Z,9.96
2019-03-23T08:42:59.604Z,10.43
2019-03-23T08:45:29.121Z,10.42
2019-03-23T08:47:58.635Z,10.63
2019-03-23T08:50:28.234Z,10.63
2019-03-23T08:52:57.738Z,11.13
2019-03-23T08:55:27.245Z,11.65
2019-03-23T08:57:56.839Z,11.86
2019-03-23T09:00:26.577Z,11.72
2019-03-23T09:02:56.167Z,11.96
2019-03-23T09:05:25.680Z,12.21
2019-03-23T09:07:55.198Z,12.23
2019-03-23T09:10:24.684Z,12.16
2019-03-23T09:12:54.198Z,12.73
2019-03-23T09:15:23.833Z,12.90
2019-03-23T09:17:53.337Z,12.49
2019-03-23T09:20:22.855Z,12.79
2019-03-23T09:22:52.382Z,12.67
2019-03-23T09:25:21.929Z,13.10
2019-03-23T09:27:51.449Z,12.86
2019-03-23T09:30:21.026Z,12.77
2019-03-23T09:32:50.601Z,12.69
2019-03-23T09:35:20.165Z,12.10
2019-03-23T09:37:49.781Z,12.43
2019-03-23T09:40:19.382Z,12.51
2019-03-23T09:42:48.926Z,12.35
2019-03-23T09:45:18.502Z,12.70
2019-03-23T09:47:48.040Z,13.24
2019-03-23T09:50:17.681Z,12.95
2019-03-23T09:52:47.218Z,12.54
2019-03-23T09:55:16.743Z,12.83
2019-03-23T09:57:46.301Z,12.93
2019-03-23T10:00:15.954Z,13.04
2019-03-23T10:02:45.467Z,13.37
2019-03-23T10:05:14.985Z,13.36
2019-03-23T10:07:44.484Z,13.04
2019-03-23T10:10:21.851Z,12.97
2019-03-23T10:12:45.410Z,13.00
2019-03-23T10:15:14.893Z,13.03
2019-03-23T10:17:44.435Z,12.86
2019-03-23T10:20:14.024Z,12.94
2019-03-23T10:22:43.612Z,13.02
2019-03-23T10:25:13.144Z,13.03
2019-03-23T10:27:42.636Z,13.02
2019-03-23T10:30:13.069Z,13.09
2019-03-23T10:32:42.589Z,13.16
2019-03-23T10:35:12.433Z,12.98
2019-03-23T10:37:41.975Z,12.97
2019-03-23T10:40:13.507Z,13.01
2019-03-23T10:42:43.496Z,13.05
2019-03-23T10:45:13.559Z,13.10
2019-03-23T10:47:43.349Z,13.10
2019-03-23T10:50:13.091Z,12.86
2019-03-23T10:52:42.661Z,13.01
2019-03-23T10:55:12.349Z,12.90
2019-03-23T10:57:41.881Z,13.03
2019-03-23T11:00:16.049Z,12.74
2019-03-23T11:02:45.622Z,13.01
2019-03-23T11:05:15.319Z,13.03
2019-03-23T11:07:44.848Z,12.71
2019-03-23T11:10:14.966Z,12.85
2019-03-23T11:12:44.582Z,12.75
2019-03-23T11:15:14.247Z,12.40
2019-03-23T11:17:44.332Z,12.66
2019-03-23T11:20:14.478Z,12.62
2019-03-23T11:22:44.005Z,12.73
2019-03-23T11:25:13.825Z,12.77
2019-03-23T11:27:43.315Z,12.75
2019-03-23T11:30:15.048Z,12.54
2019-03-23T11:32:44.748Z,12.29
2019-03-23T11:35:14.701Z,12.59
2019-03-23T11:37:44.583Z,12.58
2019-03-23T11:40:14.399Z,12.56
2019-03-23T11:42:49.723Z,12.54
2019-03-23T11:45:15.355Z,12.61
2019-03-23T11:47:44.876Z,12.48
2019-03-23T11:50:14.620Z,12.57
2019-03-23T11:52:44.125Z,12.76
2019-03-23T11:55:13.764Z,12.65
2019-03-23T11:57:43.309Z,12.72
2019-03-23T12:00:16.495Z,12.97
2019-03-23T12:02:46.102Z,12.96
2019-03-23T12:05:15.968Z,12.75
2019-03-23T12:07:45.471Z,12.92
2019-03-23T12:10:15.388Z,13.15
2019-03-23T12:12:44.918Z,13.28
2019-03-23T12:15:15.068Z,13.50
2019-03-23T12:17:44.565Z,13.49
2019-03-23T12:20:14.520Z,13.59
2019-03-23T12:22:44.186Z,13.33
2019-03-23T12:27:55.818Z,13.89
2019-03-23T12:30:25.342Z,14.28
2019-03-23T12:32:56.425Z,15.61
2019-03-23T12:35:25.959Z,16.63
2019-03-23T12:37:55.625Z,17.49
2019-03-23T12:40:25.087Z,17.27
2019-03-23T12:42:54.612Z,15.39
2019-03-23T12:45:24.102Z,15.34
2019-03-23T12:47:53.639Z,15.42
2019-03-23T12:50:23.132Z,15.97
2019-03-23T12:52:52.642Z,16.48
2019-03-23T12:55:22.248Z,16.27
2019-03-23T12:57:51.755Z,16.00
2019-03-23T13:00:21.425Z,16.10
2019-03-23T13:02:50.926Z,15.75
2019-03-23T13:05:20.506Z,15.92
2019-03-23T13:07:50.015Z,15.83
2019-03-23T13:10:19.711Z,15.04
2019-03-23T13:12:49.176Z,15.11
2019-03-23T13:15:18.841Z,15.61
2019-03-23T13:17:48.334Z,15.62
2019-03-23T13:20:18.063Z,15.87
2019-03-23T13:22:47.587Z,16.65
2019-03-23T13:25:17.163Z,16.66
2019-03-23T13:27:46.659Z,16.21
2019-03-23T13:30:19.481Z,16.06
2019-03-23T13:32:49.001Z,15.66
2019-03-23T13:35:18.517Z,15.86
2019-03-23T13:37:48.103Z,16.61
2019-03-23T13:40:17.670Z,16.33
2019-03-23T13:42:47.228Z,16.54
2019-03-23T13:45:17.065Z,16.25
2019-03-23T13:47:46.561Z,16.22
2019-03-23T13:50:23.321Z,15.99
2019-03-23T13:52:52.824Z,15.69
2019-03-23T13:55:34.168Z,15.48
2019-03-23T13:58:13.798Z,15.09
2019-03-23T14:00:43.722Z,14.63
2019-03-23T14:03:13.538Z,15.15
2019-03-23T14:05:43.096Z,15.62
2019-03-23T14:08:12.778Z,16.11
2019-03-23T14:10:42.313Z,16.19
2019-03-23T14:13:11.895Z,16.42
2019-03-23T14:15:41.476Z,16.24
2019-03-23T14:18:11.003Z,16.18
2019-03-23T14:20:40.637Z,16.25
2019-03-23T14:23:10.149Z,16.21
2019-03-23T14:25:39.685Z,16.59
2019-03-23T14:28:09.166Z,16.52
2019-03-23T14:30:38.680Z,16.40
2019-03-23T14:33:08.349Z,16.71
2019-03-23T14:35:37.843Z,16.16
2019-03-23T14:38:07.367Z,16.51
2019-03-23T14:40:36.940Z,16.56
2019-03-23T14:43:06.510Z,16.97
2019-03-23T14:45:36.989Z,16.83
2019-03-23T14:48:06.614Z,16.64
2019-03-23T14:50:36.106Z,15.91
2019-03-23T14:53:05.803Z,16.08
2019-03-23T14:55:37.377Z,16.78
2019-03-23T14:58:06.795Z,16.65
2019-03-23T15:00:36.645Z,16.34
2019-03-23T15:03:06.141Z,16.02
2019-03-23T15:05:35.722Z,16.20
2019-03-23T15:08:05.357Z,15.77
2019-03-23T15:10:34.863Z,15.86
2019-03-23T15:13:04.371Z,15.76
2019-03-23T15:15:33.912Z,15.60
2019-03-23T15:18:03.488Z,15.42
2019-03-23T15:20:33.068Z,15.20
2019-03-23T15:23:02.603Z,15.20
2019-03-23T15:25:32.184Z,14.95
2019-03-23T15:28:01.739Z,14.68
2019-03-23T15:30:31.229Z,14.70
2019-03-23T15:33:00.824Z,14.70
2019-03-23T15:35:30.379Z,14.52
2019-03-23T15:37:59.881Z,14.04
2019-03-23T15:40:29.400Z,14.31
2019-03-23T15:42:59.029Z,14.06
2019-03-23T15:45:28.557Z,14.14
2019-03-23T15:47:58.082Z,13.95
2019-03-23T15:50:27.603Z,13.90
2019-03-23T15:52:57.200Z,14.06
2019-03-23T15:55:26.776Z,13.92
2019-03-23T15:57:56.474Z,13.98
2019-03-23T16:00:26.059Z,13.89
2019-03-23T16:02:55.567Z,13.93
2019-03-23T16:05:25.190Z,13.82
2019-03-23T16:07:54.724Z,13.78
2019-03-23T16:10:24.321Z,13.86
2019-03-23T16:12:53.932Z,13.88
2019-03-23T16:15:23.489Z,13.79
2019-03-23T16:17:53.010Z,13.76
2019-03-23T16:20:22.802Z,13.67
2019-03-23T16:22:52.361Z,13.63
2019-03-23T16:25:23.428Z,13.49
2019-03-23T16:27:52.989Z,13.49
2019-03-23T16:30:29.301Z,13.35
2019-03-23T16:32:59.545Z,13.39
2019-03-23T16:35:29.205Z,13.48
2019-03-23T16:37:58.743Z,13.46
2019-03-23T16:40:47.666Z,13.36
2019-03-23T16:43:17.172Z,13.31
2019-03-23T16:45:46.758Z,13.24
2019-03-23T16:48:16.291Z,13.16
2019-03-23T16:50:45.801Z,13.33
2019-03-23T16:53:15.296Z,13.48
2019-03-23T16:55:44.914Z,13.31
2019-03-23T16:58:16.308Z,13.28
2019-03-23T17:00:46.706Z,13.34
2019-03-23T17:03:16.201Z,13.15
2019-03-23T17:05:45.741Z,13.20
2019-03-23T17:08:15.235Z,13.19
2019-03-23T17:10:44.945Z,12.90
2019-03-23T17:13:14.509Z,12.96
2019-03-23T17:15:44.103Z,12.79
2019-03-23T17:18:13.636Z,12.71
2019-03-23T17:20:43.183Z,12.83
2019-03-23T17:23:12.716Z,12.79
2019-03-23T17:25:42.227Z,12.83
2019-03-23T17:28:11.761Z,12.84
2019-03-23T17:30:41.304Z,12.65
2019-03-23T17:33:10.822Z,12.65
2019-03-23T17:35:40.311Z,12.66
2019-03-23T17:38:09.918Z,12.44
2019-03-23T17:40:39.416Z,12.54
2019-03-23T17:43:08.949Z,12.70
2019-03-23T17:45:38.612Z,12.44
2019-03-23T17:48:08.220Z,12.23
2019-03-23T17:50:37.861Z,12.35
2019-03-23T17:53:07.378Z,12.42
2019-03-23T17:55:37.035Z,12.51
2019-03-23T17:58:06.778Z,12.54
2019-03-23T18:00:36.429Z,12.43
2019-03-23T18:03:06.075Z,12.40
2019-03-23T18:05:35.686Z,12.48
2019-03-23T18:08:05.279Z,12.43
2019-03-23T18:10:34.776Z,12.46
2019-03-23T18:13:04.499Z,12.40
2019-03-23T18:15:34.048Z,12.29
2019-03-23T18:18:03.690Z,12.19
2019-03-23T18:20:33.277Z,12.40
2019-03-23T18:23:02.844Z,12.20
2019-03-23T18:25:32.469Z,12.22
2019-03-23T18:28:02.028Z,12.40
2019-03-23T18:30:43.728Z,12.13
2019-03-23T18:33:13.605Z,11.96
2019-03-23T18:35:43.343Z,11.91
2019-03-23T18:38:12.990Z,11.85
2019-03-23T18:40:42.755Z,12.27
2019-03-23T18:43:12.302Z,12.06
2019-03-23T18:45:41.857Z,12.02
2019-03-23T18:48:11.463Z,12.21
2019-03-23T18:50:42.771Z,12.22
2019-03-23T18:53:12.578Z,12.26
2019-03-23T18:55:42.108Z,12.12
2019-03-23T18:58:11.658Z,11.86
2019-03-23T19:00:42.918Z,12.13
2019-03-23T19:03:12.924Z,12.05
2019-03-23T19:05:42.646Z,12.09
2019-03-23T19:08:12.299Z,11.98
2019-03-23T19:10:42.125Z,11.90
2019-03-23T19:13:11.820Z,11.86
2019-03-23T19:15:41.519Z,11.76
2019-03-23T19:18:11.191Z,11.66
2019-03-23T19:20:40.788Z,11.75
2019-03-23T19:23:10.300Z,11.78
2019-03-23T19:25:39.809Z,11.83
2019-03-23T19:28:09.367Z,11.86
2019-03-23T19:30:38.995Z,11.92
2019-03-23T19:33:08.518Z,11.93
2019-03-23T19:35:38.117Z,11.78
2019-03-23T19:38:07.835Z,11.65
2019-03-23T19:40:37.332Z,11.72
2019-03-23T19:43:06.956Z,11.61
2019-03-23T19:45:36.563Z,11.73
2019-03-23T19:48:06.192Z,11.79
2019-03-23T19:50:35.754Z,11.67
2019-03-23T19:53:05.413Z,11.55
2019-03-23T19:55:34.979Z,11.50
2019-03-23T19:58:04.694Z,11.49
2019-03-23T20:00:36.376Z,11.80
2019-03-23T20:03:05.994Z,11.78
2019-03-23T20:05:35.682Z,11.67
2019-03-23T20:08:05.247Z,11.59
2019-03-23T20:10:34.855Z,11.79
2019-03-23T20:13:04.621Z,11.90
2019-03-23T20:15:34.315Z,11.74
2019-03-23T20:18:03.886Z,11.60
2019-03-23T20:20:33.628Z,11.54
2019-03-23T20:23:03.261Z,11.52
2019-03-23T20:25:32.801Z,11.52
2019-03-23T20:28:02.377Z,11.57
2019-03-23T20:30:31.885Z,11.77
2019-03-23T20:33:01.423Z,11.61
2019-03-23T20:35:31.044Z,11.75
2019-03-23T20:38:00.517Z,11.83
2019-03-23T20:40:30.051Z,11.67
2019-03-23T20:43:00.317Z,11.58
2019-03-23T20:45:30.927Z,11.54
2019-03-23T20:48:00.599Z,11.70
2019-03-23T20:50:30.282Z,11.67
2019-03-23T20:53:00.345Z,11.74
2019-03-23T20:55:32.727Z,11.81
2019-03-23T20:58:02.346Z,11.65
2019-03-23T21:00:31.868Z,11.51
2019-03-23T21:03:01.481Z,11.53
2019-03-23T21:05:34.066Z,11.53
2019-03-23T21:08:02.342Z,11.53
2019-03-23T21:10:31.883Z,11.67
2019-03-23T21:13:01.530Z,11.70
2019-03-23T21:15:31.161Z,11.62
2019-03-23T21:18:00.683Z,11.68
2019-03-23T21:20:30.233Z,11.68
2019-03-23T21:22:59.800Z,11.87
2019-03-23T21:25:31.963Z,11.73
2019-03-23T21:28:01.540Z,11.64
2019-03-23T21:30:31.119Z,11.43
2019-03-23T21:33:00.699Z,11.26
2019-03-23T21:35:30.296Z,11.39
2019-03-23T21:37:59.814Z,11.42
2019-03-23T21:40:29.426Z,11.36
2019-03-23T21:42:58.964Z,11.28
2019-03-23T21:45:28.544Z,11.27
2019-03-23T21:47:58.060Z,11.23
2019-03-23T21:50:27.572Z,11.22
2019-03-23T21:52:57.102Z,11.28
2019-03-23T21:55:26.610Z,11.44
2019-03-23T21:57:56.117Z,11.65
2019-03-23T22:00:35.545Z,11.43
2019-03-23T22:03:05.289Z,11.28
2019-03-23T22:05:34.814Z,11.21
2019-03-23T22:08:04.628Z,11.23
2019-03-23T22:10:34.336Z,11.20
2019-03-23T22:13:03.941Z,11.08
2019-03-23T22:15:34.132Z,11.13
2019-03-23T22:18:03.823Z,11.24
2019-03-23T22:20:33.486Z,11.18
2019-03-23T22:23:02.995Z,11.20
2019-03-23T22:25:32.587Z,11.21
2019-03-23T22:28:02.155Z,11.19
2019-03-23T22:30:31.832Z,11.06
2019-03-23T22:33:01.458Z,11.11
2019-03-23T22:35:31.063Z,11.20
2019-03-23T22:38:00.634Z,11.11
2019-03-23T22:40:33.332Z,11.04
2019-03-23T22:43:02.870Z,11.04
2019-03-23T22:45:32.381Z,10.98
2019-03-23T22:48:01.939Z,10.97
2019-03-23T22:50:31.521Z,11.00
2019-03-23T22:53:01.275Z,11.10
2019-03-23T22:55:30.814Z,10.99
2019-03-23T22:58:00.299Z,10.90
2019-03-23T23:00:34.068Z,10.88
2019-03-23T23:03:03.937Z,10.87
2019-03-23T23:05:33.457Z,10.83
2019-03-23T23:08:02.965Z,10.83
2019-03-23T23:10:32.493Z,10.76
2019-03-23T23:13:02.047Z,10.71
2019-03-23T23:15:31.583Z,10.70
2019-03-23T23:18:02.085Z,10.72
2019-03-23T23:20:31.611Z,10.81
2019-03-23T23:23:01.129Z,10.80
2019-03-23T23:25:30.629Z,10.82
2019-03-23T23:28:00.162Z,10.88
2019-03-23T23:30:31.278Z,10.90
2019-03-23T23:33:00.779Z,10.98
2019-03-23T23:35:30.400Z,10.98
2019-03-23T23:37:59.969Z,10.90
2019-03-23T23:40:29.503Z,10.84
2019-03-23T23:42:59.086Z,11.05
2019-03-23T23:45:28.596Z,10.96
2019-03-23T23:47:58.094Z,10.88
2019-03-23T23:50:27.591Z,10.91
2019-03-23T23:52:57.127Z,10.90
2019-03-23T23:55:31.522Z,10.91
2019-03-23T23:58:04.485Z,10.90
